sensor_id;sensor_type;location;lat;lon;timestamp;temperature;humidity
18317;DHT22;9284;52.298;21.164;2023-07-16T00:02:14;19.40;1.00
18317;DHT22;9284;52.298;21.164;2023-07-16T00:04:42;19.40;1.00
18317;DHT22;9284;52.298;21.164;2023-07-16T00:07:11;19.40;1.00
18317;DHT22;9284;52.298;21.164;2023-07-16T00:09:39;19.30;1.00
18317;DHT22;9284;52.298;21.164;2023-07-16T00:12:09;19.30;1.00
18317;DHT22;9284;52.298;21.164;2023-07-16T00:14:37;19.20;1.00
18317;DHT22;9284;52.298;21.164;2023-07-16T00:17:05;19.20;14.60
18317;DHT22;9284;52.298;21.164;2023-07-16T00:19:34;19.10;6.40
18317;DHT22;9284;52.298;21.164;2023-07-16T00:22:02;19.10;67.90
18317;DHT22;9284;52.298;21.164;2023-07-16T00:24:31;19.00;99.90
18317;DHT22;9284;52.298;21.164;2023-07-16T00:26:59;19.00;99.90
18317;DHT22;9284;52.298;21.164;2023-07-16T00:29:29;19.00;99.90
18317;DHT22;9284;52.298;21.164;2023-07-16T00:31:57;18.90;99.90
18317;DHT22;9284;52.298;21.164;2023-07-16T00:34:26;18.90;99.90
18317;DHT22;9284;52.298;21.164;2023-07-16T00:36:54;18.90;99.90
18317;DHT22;9284;52.298;21.164;2023-07-16T00:39:28;18.80;99.90
18317;DHT22;9284;52.298;21.164;2023-07-16T00:41:57;18.80;99.90
18317;DHT22;9284;52.298;21.164;2023-07-16T00:44:25;18.80;99.90
18317;DHT22;9284;52.298;21.164;2023-07-16T00:46:55;18.80;99.90
18317;DHT22;9284;52.298;21.164;2023-07-16T00:49:24;18.70;99.90
18317;DHT22;9284;52.298;21.164;2023-07-16T00:51:52;18.80;99.90
18317;DHT22;9284;52.298;21.164;2023-07-16T00:54:21;18.80;99.90
18317;DHT22;9284;52.298;21.164;2023-07-16T00:56:50;18.80;1.00
18317;DHT22;9284;52.298;21.164;2023-07-16T00:59:18;18.80;1.00
18317;DHT22;9284;52.298;21.164;2023-07-16T01:01:47;18.70;1.00
18317;DHT22;9284;52.298;21.164;2023-07-16T01:04:17;18.70;1.00
18317;DHT22;9284;52.298;21.164;2023-07-16T01:06:50;18.60;1.00
18317;DHT22;9284;52.298;21.164;2023-07-16T01:09:20;18.60;1.00
18317;DHT22;9284;52.298;21.164;2023-07-16T01:11:50;18.60;1.00
18317;DHT22;9284;52.298;21.164;2023-07-16T01:14:19;18.60;1.00
18317;DHT22;9284;52.298;21.164;2023-07-16T01:16:48;18.60;1.00
18317;DHT22;9284;52.298;21.164;2023-07-16T01:19:19;18.50;1.00
18317;DHT22;9284;52.298;21.164;2023-07-16T01:21:55;18.50;1.00
18317;DHT22;9284;52.298;21.164;2023-07-16T01:27:44;18.50;1.00
18317;DHT22;9284;52.298;21.164;2023-07-16T01:30:19;18.40;1.00
18317;DHT22;9284;52.298;21.164;2023-07-16T01:32:50;18.50;1.00
18317;DHT22;9284;52.298;21.164;2023-07-16T01:35:20;18.40;14.20
18317;DHT22;9284;52.298;21.164;2023-07-16T01:37:49;18.40;10.40
18317;DHT22;9284;52.298;21.164;2023-07-16T01:40:17;18.40;78.00
18317;DHT22;9284;52.298;21.164;2023-07-16T01:42:45;18.40;1.00
18317;DHT22;9284;52.298;21.164;2023-07-16T01:45:14;18.40;1.00
18317;DHT22;9284;52.298;21.164;2023-07-16T01:47:54;18.40;63.20
18317;DHT22;9284;52.298;21.164;2023-07-16T01:50:27;18.40;74.30
18317;DHT22;9284;52.298;21.164;2023-07-16T01:52:55;18.30;99.90
18317;DHT22;9284;52.298;21.164;2023-07-16T01:55:25;18.30;99.90
18317;DHT22;9284;52.298;21.164;2023-07-16T01:57:55;18.30;99.90
18317;DHT22;9284;52.298;21.164;2023-07-16T02:00:24;18.30;99.90
18317;DHT22;9284;52.298;21.164;2023-07-16T02:02:53;18.20;99.90
18317;DHT22;9284;52.298;21.164;2023-07-16T02:05:22;18.20;1.00
18317;DHT22;9284;52.298;21.164;2023-07-16T02:07:50;18.10;1.00
18317;DHT22;9284;52.298;21.164;2023-07-16T02:10:18;18.10;1.00
18317;DHT22;9284;52.298;21.164;2023-07-16T02:12:47;18.10;1.00
18317;DHT22;9284;52.298;21.164;2023-07-16T02:15:16;18.10;1.00
18317;DHT22;9284;52.298;21.164;2023-07-16T02:17:45;18.10;1.00
18317;DHT22;9284;52.298;21.164;2023-07-16T02:20:17;18.20;99.90
18317;DHT22;9284;52.298;21.164;2023-07-16T02:22:46;18.20;1.00
18317;DHT22;9284;52.298;21.164;2023-07-16T02:25:14;18.10;1.00
18317;DHT22;9284;52.298;21.164;2023-07-16T02:27:42;18.10;1.00
18317;DHT22;9284;52.298;21.164;2023-07-16T02:30:11;18.10;1.00
18317;DHT22;9284;52.298;21.164;2023-07-16T02:32:42;18.20;1.00
18317;DHT22;9284;52.298;21.164;2023-07-16T02:35:11;18.20;1.00
18317;DHT22;9284;52.298;21.164;2023-07-16T02:37:40;18.20;1.00
18317;DHT22;9284;52.298;21.164;2023-07-16T02:40:09;18.20;1.00
18317;DHT22;9284;52.298;21.164;2023-07-16T02:42:37;18.30;1.00
18317;DHT22;9284;52.298;21.164;2023-07-16T02:45:07;18.30;1.00
18317;DHT22;9284;52.298;21.164;2023-07-16T02:47:35;18.40;1.00
18317;DHT22;9284;52.298;21.164;2023-07-16T02:50:04;18.40;1.00
18317;DHT22;9284;52.298;21.164;2023-07-16T02:52:33;18.40;1.00
18317;DHT22;9284;52.298;21.164;2023-07-16T02:55:03;18.30;1.00
18317;DHT22;9284;52.298;21.164;2023-07-16T02:57:31;18.40;1.00
18317;DHT22;9284;52.298;21.164;2023-07-16T03:00:00;18.40;1.00
18317;DHT22;9284;52.298;21.164;2023-07-16T03:02:28;18.50;1.00
18317;DHT22;9284;52.298;21.164;2023-07-16T03:04:57;18.50;99.90
18317;DHT22;9284;52.298;21.164;2023-07-16T03:07:25;18.50;99.90
18317;DHT22;9284;52.298;21.164;2023-07-16T03:09:53;18.60;99.90
18317;DHT22;9284;52.298;21.164;2023-07-16T03:12:23;18.60;99.90
18317;DHT22;9284;52.298;21.164;2023-07-16T03:14:52;18.70;99.90
18317;DHT22;9284;52.298;21.164;2023-07-16T03:17:21;18.80;99.90
18317;DHT22;9284;52.298;21.164;2023-07-16T03:19:50;18.90;94.70
18317;DHT22;9284;52.298;21.164;2023-07-16T03:22:18;18.90;38.00
18317;DHT22;9284;52.298;21.164;2023-07-16T03:24:47;18.90;75.90
18317;DHT22;9284;52.298;21.164;2023-07-16T03:27:16;19.00;94.80
18317;DHT22;9284;52.298;21.164;2023-07-16T03:29:53;19.00;99.90
18317;DHT22;9284;52.298;21.164;2023-07-16T03:32:22;19.00;66.30
18317;DHT22;9284;52.298;21.164;2023-07-16T03:35:01;19.00;82.50
18317;DHT22;9284;52.298;21.164;2023-07-16T03:37:29;19.10;93.40
18317;DHT22;9284;52.298;21.164;2023-07-16T03:40:12;19.20;1.00
18317;DHT22;9284;52.298;21.164;2023-07-16T03:42:44;19.40;1.00
18317;DHT22;9284;52.298;21.164;2023-07-16T03:45:13;19.50;1.00
18317;DHT22;9284;52.298;21.164;2023-07-16T03:47:42;19.60;1.00
18317;DHT22;9284;52.298;21.164;2023-07-16T03:50:11;19.70;99.90
18317;DHT22;9284;52.298;21.164;2023-07-16T03:52:39;19.90;99.90
18317;DHT22;9284;52.298;21.164;2023-07-16T03:55:08;19.90;99.90
18317;DHT22;9284;52.298;21.164;2023-07-16T03:57:37;19.90;99.90
18317;DHT22;9284;52.298;21.164;2023-07-16T04:00:07;19.90;99.90
18317;DHT22;9284;52.298;21.164;2023-07-16T04:02:41;19.90;99.90
18317;DHT22;9284;52.298;21.164;2023-07-16T04:05:16;19.90;99.90
18317;DHT22;9284;52.298;21.164;2023-07-16T04:07:46;20.00;99.90
18317;DHT22;9284;52.298;21.164;2023-07-16T04:10:14;20.10;99.90
18317;DHT22;9284;52.298;21.164;2023-07-16T04:12:43;20.20;86.20
18317;DHT22;9284;52.298;21.164;2023-07-16T04:15:11;20.30;55.70
18317;DHT22;9284;52.298;21.164;2023-07-16T04:17:41;20.40;31.80
18317;DHT22;9284;52.298;21.164;2023-07-16T04:20:10;20.50;1.00
18317;DHT22;9284;52.298;21.164;2023-07-16T04:22:38;20.50;1.00
18317;DHT22;9284;52.298;21.164;2023-07-16T04:25:08;20.70;1.00
18317;DHT22;9284;52.298;21.164;2023-07-16T04:27:37;20.80;1.00
18317;DHT22;9284;52.298;21.164;2023-07-16T04:30:07;20.90;1.00
18317;DHT22;9284;52.298;21.164;2023-07-16T04:32:36;21.00;1.00
18317;DHT22;9284;52.298;21.164;2023-07-16T04:35:07;21.10;1.00
18317;DHT22;9284;52.298;21.164;2023-07-16T04:37:35;21.20;1.00
18317;DHT22;9284;52.298;21.164;2023-07-16T04:40:04;21.30;1.00
18317;DHT22;9284;52.298;21.164;2023-07-16T04:42:33;21.40;1.00
18317;DHT22;9284;52.298;21.164;2023-07-16T04:45:01;21.50;1.00
18317;DHT22;9284;52.298;21.164;2023-07-16T04:47:30;21.60;1.00
18317;DHT22;9284;52.298;21.164;2023-07-16T04:49:58;21.70;99.90
18317;DHT22;9284;52.298;21.164;2023-07-16T04:52:28;21.90;99.90
18317;DHT22;9284;52.298;21.164;2023-07-16T04:54:56;22.00;99.90
18317;DHT22;9284;52.298;21.164;2023-07-16T04:57:25;22.20;99.90
18317;DHT22;9284;52.298;21.164;2023-07-16T04:59:53;22.30;99.90
18317;DHT22;9284;52.298;21.164;2023-07-16T05:02:22;22.40;99.90
18317;DHT22;9284;52.298;21.164;2023-07-16T05:04:50;22.50;99.90
18317;DHT22;9284;52.298;21.164;2023-07-16T05:07:18;22.60;99.90
18317;DHT22;9284;52.298;21.164;2023-07-16T05:09:48;22.70;99.90
18317;DHT22;9284;52.298;21.164;2023-07-16T05:12:16;22.80;99.90
18317;DHT22;9284;52.298;21.164;2023-07-16T05:14:47;22.80;99.90
18317;DHT22;9284;52.298;21.164;2023-07-16T05:17:15;22.90;99.90
18317;DHT22;9284;52.298;21.164;2023-07-16T05:19:44;23.00;99.90
18317;DHT22;9284;52.298;21.164;2023-07-16T05:22:12;23.10;99.90
18317;DHT22;9284;52.298;21.164;2023-07-16T05:24:41;23.10;99.90
18317;DHT22;9284;52.298;21.164;2023-07-16T05:27:10;23.20;99.90
18317;DHT22;9284;52.298;21.164;2023-07-16T05:29:39;23.40;99.90
18317;DHT22;9284;52.298;21.164;2023-07-16T05:32:07;23.50;99.90
18317;DHT22;9284;52.298;21.164;2023-07-16T05:34:36;23.50;99.90
18317;DHT22;9284;52.298;21.164;2023-07-16T05:37:05;23.70;99.90
18317;DHT22;9284;52.298;21.164;2023-07-16T05:39:33;23.80;99.90
18317;DHT22;9284;52.298;21.164;2023-07-16T05:42:02;23.90;99.90
18317;DHT22;9284;52.298;21.164;2023-07-16T05:44:31;24.10;99.90
18317;DHT22;9284;52.298;21.164;2023-07-16T05:47:00;24.30;99.90
18317;DHT22;9284;52.298;21.164;2023-07-16T05:49:28;24.30;99.90
18317;DHT22;9284;52.298;21.164;2023-07-16T05:51:56;24.50;99.90
18317;DHT22;9284;52.298;21.164;2023-07-16T05:54:25;24.60;99.90
18317;DHT22;9284;52.298;21.164;2023-07-16T05:56:53;24.70;99.90
18317;DHT22;9284;52.298;21.164;2023-07-16T05:59:21;24.80;99.90
18317;DHT22;9284;52.298;21.164;2023-07-16T06:01:51;25.00;99.90
18317;DHT22;9284;52.298;21.164;2023-07-16T06:04:20;25.00;99.90
18317;DHT22;9284;52.298;21.164;2023-07-16T06:06:48;25.20;99.90
18317;DHT22;9284;52.298;21.164;2023-07-16T06:09:19;25.30;99.90
18317;DHT22;9284;52.298;21.164;2023-07-16T06:11:47;25.50;99.90
18317;DHT22;9284;52.298;21.164;2023-07-16T06:14:16;25.60;99.90
18317;DHT22;9284;52.298;21.164;2023-07-16T06:16:44;25.80;99.90
18317;DHT22;9284;52.298;21.164;2023-07-16T06:19:14;26.00;99.90
18317;DHT22;9284;52.298;21.164;2023-07-16T06:21:43;26.30;99.90
18317;DHT22;9284;52.298;21.164;2023-07-16T06:24:11;27.00;99.90
18317;DHT22;9284;52.298;21.164;2023-07-16T06:26:43;28.00;78.40
18317;DHT22;9284;52.298;21.164;2023-07-16T06:29:11;28.70;38.10
18317;DHT22;9284;52.298;21.164;2023-07-16T06:31:42;29.50;23.00
18317;DHT22;9284;52.298;21.164;2023-07-16T06:34:11;30.00;5.90
18317;DHT22;9284;52.298;21.164;2023-07-16T06:36:41;30.70;1.00
18317;DHT22;9284;52.298;21.164;2023-07-16T06:39:09;30.80;1.00
18317;DHT22;9284;52.298;21.164;2023-07-16T06:41:37;31.40;1.00
18317;DHT22;9284;52.298;21.164;2023-07-16T06:44:07;31.90;1.00
18317;DHT22;9284;52.298;21.164;2023-07-16T06:46:36;32.60;1.00
18317;DHT22;9284;52.298;21.164;2023-07-16T06:49:05;32.70;1.00
18317;DHT22;9284;52.298;21.164;2023-07-16T06:51:33;33.40;1.00
18317;DHT22;9284;52.298;21.164;2023-07-16T06:54:03;33.40;1.00
18317;DHT22;9284;52.298;21.164;2023-07-16T06:56:31;33.70;1.00
18317;DHT22;9284;52.298;21.164;2023-07-16T06:59:00;33.80;1.00
18317;DHT22;9284;52.298;21.164;2023-07-16T07:01:28;33.40;1.00
18317;DHT22;9284;52.298;21.164;2023-07-16T07:03:56;33.20;1.00
18317;DHT22;9284;52.298;21.164;2023-07-16T07:06:25;33.40;1.00
18317;DHT22;9284;52.298;21.164;2023-07-16T07:08:53;33.90;1.00
18317;DHT22;9284;52.298;21.164;2023-07-16T07:11:23;34.00;1.00
18317;DHT22;9284;52.298;21.164;2023-07-16T07:13:52;33.90;1.00
18317;DHT22;9284;52.298;21.164;2023-07-16T07:16:22;34.40;1.00
18317;DHT22;9284;52.298;21.164;2023-07-16T07:18:50;34.80;1.00
18317;DHT22;9284;52.298;21.164;2023-07-16T07:21:19;34.30;1.00
18317;DHT22;9284;52.298;21.164;2023-07-16T07:23:47;34.50;1.00
18317;DHT22;9284;52.298;21.164;2023-07-16T07:26:15;34.70;1.00
18317;DHT22;9284;52.298;21.164;2023-07-16T07:28:46;35.00;1.00
18317;DHT22;9284;52.298;21.164;2023-07-16T07:31:14;35.00;1.00
18317;DHT22;9284;52.298;21.164;2023-07-16T07:33:42;35.90;1.00
18317;DHT22;9284;52.298;21.164;2023-07-16T07:36:11;35.00;1.00
18317;DHT22;9284;52.298;21.164;2023-07-16T07:38:39;35.40;1.00
18317;DHT22;9284;52.298;21.164;2023-07-16T07:41:08;36.00;1.00
18317;DHT22;9284;52.298;21.164;2023-07-16T07:43:36;35.90;1.00
18317;DHT22;9284;52.298;21.164;2023-07-16T07:46:06;35.10;1.00
18317;DHT22;9284;52.298;21.164;2023-07-16T07:48:34;35.30;1.00
18317;DHT22;9284;52.298;21.164;2023-07-16T07:51:03;35.20;1.00
18317;DHT22;9284;52.298;21.164;2023-07-16T07:53:31;34.50;1.00
18317;DHT22;9284;52.298;21.164;2023-07-16T07:55:59;34.80;1.00
18317;DHT22;9284;52.298;21.164;2023-07-16T07:58:28;35.00;1.00
18317;DHT22;9284;52.298;21.164;2023-07-16T08:00:56;35.00;1.00
18317;DHT22;9284;52.298;21.164;2023-07-16T08:03:26;35.10;1.00
18317;DHT22;9284;52.298;21.164;2023-07-16T08:05:54;35.60;1.00
18317;DHT22;9284;52.298;21.164;2023-07-16T08:08:23;35.80;1.00
18317;DHT22;9284;52.298;21.164;2023-07-16T08:10:51;35.80;1.00
18317;DHT22;9284;52.298;21.164;2023-07-16T08:13:19;35.80;1.00
18317;DHT22;9284;52.298;21.164;2023-07-16T08:15:48;35.60;1.00
18317;DHT22;9284;52.298;21.164;2023-07-16T08:18:16;35.90;1.00
18317;DHT22;9284;52.298;21.164;2023-07-16T08:20:46;36.40;1.00
18317;DHT22;9284;52.298;21.164;2023-07-16T08:23:14;36.30;1.00
18317;DHT22;9284;52.298;21.164;2023-07-16T08:25:43;36.50;1.00
18317;DHT22;9284;52.298;21.164;2023-07-16T08:28:12;36.50;1.00
18317;DHT22;9284;52.298;21.164;2023-07-16T08:30:42;36.90;1.00
18317;DHT22;9284;52.298;21.164;2023-07-16T08:33:10;36.70;1.00
18317;DHT22;9284;52.298;21.164;2023-07-16T08:35:39;37.10;1.00
18317;DHT22;9284;52.298;21.164;2023-07-16T08:38:09;36.60;1.00
18317;DHT22;9284;52.298;21.164;2023-07-16T08:40:37;36.50;1.00
18317;DHT22;9284;52.298;21.164;2023-07-16T08:43:06;36.60;1.00
18317;DHT22;9284;52.298;21.164;2023-07-16T08:45:38;37.30;1.00
18317;DHT22;9284;52.298;21.164;2023-07-16T08:48:07;37.50;1.00
18317;DHT22;9284;52.298;21.164;2023-07-16T08:50:37;37.50;1.00
18317;DHT22;9284;52.298;21.164;2023-07-16T08:53:06;36.90;1.00
18317;DHT22;9284;52.298;21.164;2023-07-16T08:55:36;36.70;1.00
18317;DHT22;9284;52.298;21.164;2023-07-16T08:58:05;37.00;1.00
18317;DHT22;9284;52.298;21.164;2023-07-16T09:00:34;36.90;1.00
18317;DHT22;9284;52.298;21.164;2023-07-16T09:03:03;36.90;1.00
18317;DHT22;9284;52.298;21.164;2023-07-16T09:05:33;37.00;1.00
18317;DHT22;9284;52.298;21.164;2023-07-16T09:08:06;37.20;1.00
18317;DHT22;9284;52.298;21.164;2023-07-16T09:10:36;37.30;1.00
18317;DHT22;9284;52.298;21.164;2023-07-16T09:13:05;37.20;1.00
18317;DHT22;9284;52.298;21.164;2023-07-16T09:15:33;37.50;1.00
18317;DHT22;9284;52.298;21.164;2023-07-16T09:18:02;37.50;1.00
18317;DHT22;9284;52.298;21.164;2023-07-16T09:20:31;37.10;1.00
18317;DHT22;9284;52.298;21.164;2023-07-16T09:22:59;37.20;1.00
18317;DHT22;9284;52.298;21.164;2023-07-16T09:25:28;37.30;1.00
18317;DHT22;9284;52.298;21.164;2023-07-16T09:28:02;37.50;1.00
18317;DHT22;9284;52.298;21.164;2023-07-16T09:30:31;36.40;1.00
18317;DHT22;9284;52.298;21.164;2023-07-16T09:33:09;35.90;1.00
18317;DHT22;9284;52.298;21.164;2023-07-16T09:35:39;36.40;1.00
18317;DHT22;9284;52.298;21.164;2023-07-16T09:38:08;36.70;1.00
18317;DHT22;9284;52.298;21.164;2023-07-16T09:40:41;36.80;1.00
18317;DHT22;9284;52.298;21.164;2023-07-16T09:43:12;36.90;1.00
18317;DHT22;9284;52.298;21.164;2023-07-16T09:45:42;37.00;1.00
18317;DHT22;9284;52.298;21.164;2023-07-16T09:48:10;36.30;1.00
18317;DHT22;9284;52.298;21.164;2023-07-16T09:50:44;36.50;1.00
18317;DHT22;9284;52.298;21.164;2023-07-16T09:53:15;36.70;1.00
18317;DHT22;9284;52.298;21.164;2023-07-16T09:55:46;36.50;1.00
18317;DHT22;9284;52.298;21.164;2023-07-16T09:58:19;36.70;1.00
18317;DHT22;9284;52.298;21.164;2023-07-16T10:00:50;36.40;1.00
18317;DHT22;9284;52.298;21.164;2023-07-16T10:03:19;36.30;1.00
18317;DHT22;9284;52.298;21.164;2023-07-16T10:05:47;36.10;1.00
18317;DHT22;9284;52.298;21.164;2023-07-16T10:08:19;36.10;1.00
18317;DHT22;9284;52.298;21.164;2023-07-16T10:10:52;36.10;1.00
18317;DHT22;9284;52.298;21.164;2023-07-16T10:13:23;36.60;1.00
18317;DHT22;9284;52.298;21.164;2023-07-16T10:15:53;36.50;1.00
18317;DHT22;9284;52.298;21.164;2023-07-16T10:18:29;36.30;1.00
18317;DHT22;9284;52.298;21.164;2023-07-16T10:21:04;36.40;1.00
18317;DHT22;9284;52.298;21.164;2023-07-16T10:23:38;36.40;1.00
18317;DHT22;9284;52.298;21.164;2023-07-16T10:26:09;36.40;1.00
18317;DHT22;9284;52.298;21.164;2023-07-16T10:28:41;36.30;1.00
18317;DHT22;9284;52.298;21.164;2023-07-16T10:31:17;36.00;1.00
18317;DHT22;9284;52.298;21.164;2023-07-16T10:33:59;35.90;1.00
18317;DHT22;9284;52.298;21.164;2023-07-16T10:36:28;35.40;1.00
18317;DHT22;9284;52.298;21.164;2023-07-16T10:39:02;34.40;1.00
18317;DHT22;9284;52.298;21.164;2023-07-16T10:41:31;34.70;1.00
18317;DHT22;9284;52.298;21.164;2023-07-16T10:44:02;35.40;1.00
18317;DHT22;9284;52.298;21.164;2023-07-16T10:46:31;35.40;1.00
18317;DHT22;9284;52.298;21.164;2023-07-16T10:49:01;35.20;1.00
18317;DHT22;9284;52.298;21.164;2023-07-16T10:51:29;34.90;1.00
18317;DHT22;9284;52.298;21.164;2023-07-16T10:53:58;34.70;1.00
18317;DHT22;9284;52.298;21.164;2023-07-16T10:56:26;34.70;1.00
18317;DHT22;9284;52.298;21.164;2023-07-16T10:58:54;34.90;1.00
18317;DHT22;9284;52.298;21.164;2023-07-16T11:01:24;34.90;1.00
18317;DHT22;9284;52.298;21.164;2023-07-16T11:03:53;35.20;1.00
18317;DHT22;9284;52.298;21.164;2023-07-16T11:06:21;35.30;1.00
18317;DHT22;9284;52.298;21.164;2023-07-16T11:08:50;35.40;1.00
18317;DHT22;9284;52.298;21.164;2023-07-16T11:11:28;34.90;1.00
18317;DHT22;9284;52.298;21.164;2023-07-16T11:13:56;35.60;1.00
18317;DHT22;9284;52.298;21.164;2023-07-16T11:16:26;35.80;1.00
18317;DHT22;9284;52.298;21.164;2023-07-16T11:18:56;35.50;1.00
18317;DHT22;9284;52.298;21.164;2023-07-16T11:21:25;35.30;1.00
18317;DHT22;9284;52.298;21.164;2023-07-16T11:23:53;35.10;1.00
18317;DHT22;9284;52.298;21.164;2023-07-16T11:26:21;35.20;1.00
18317;DHT22;9284;52.298;21.164;2023-07-16T11:28:51;35.20;1.00
18317;DHT22;9284;52.298;21.164;2023-07-16T11:31:19;35.00;1.00
18317;DHT22;9284;52.298;21.164;2023-07-16T11:33:52;35.30;1.00
18317;DHT22;9284;52.298;21.164;2023-07-16T11:36:20;35.80;1.00
18317;DHT22;9284;52.298;21.164;2023-07-16T11:38:49;36.20;1.00
18317;DHT22;9284;52.298;21.164;2023-07-16T11:41:20;36.50;1.00
18317;DHT22;9284;52.298;21.164;2023-07-16T11:43:49;36.60;1.00
18317;DHT22;9284;52.298;21.164;2023-07-16T11:46:18;36.50;1.00
18317;DHT22;9284;52.298;21.164;2023-07-16T11:48:47;36.50;1.00
18317;DHT22;9284;52.298;21.164;2023-07-16T11:51:16;36.20;1.00
18317;DHT22;9284;52.298;21.164;2023-07-16T11:53:45;36.40;1.00
18317;DHT22;9284;52.298;21.164;2023-07-16T11:56:13;36.40;1.00
18317;DHT22;9284;52.298;21.164;2023-07-16T11:58:42;36.50;1.00
18317;DHT22;9284;52.298;21.164;2023-07-16T12:01:13;36.30;1.00
18317;DHT22;9284;52.298;21.164;2023-07-16T12:03:42;35.90;1.00
18317;DHT22;9284;52.298;21.164;2023-07-16T12:06:11;35.40;1.00
18317;DHT22;9284;52.298;21.164;2023-07-16T12:08:40;34.90;1.00
18317;DHT22;9284;52.298;21.164;2023-07-16T12:11:09;34.80;1.00
18317;DHT22;9284;52.298;21.164;2023-07-16T12:13:37;34.90;1.00
18317;DHT22;9284;52.298;21.164;2023-07-16T12:16:06;34.80;1.00
18317;DHT22;9284;52.298;21.164;2023-07-16T12:18:34;34.80;1.00
18317;DHT22;9284;52.298;21.164;2023-07-16T12:21:03;35.20;1.00
18317;DHT22;9284;52.298;21.164;2023-07-16T12:23:33;35.20;1.00
18317;DHT22;9284;52.298;21.164;2023-07-16T12:26:02;35.20;1.00
18317;DHT22;9284;52.298;21.164;2023-07-16T12:28:31;35.30;1.00
18317;DHT22;9284;52.298;21.164;2023-07-16T12:30:59;35.20;1.00
18317;DHT22;9284;52.298;21.164;2023-07-16T12:33:27;35.20;1.00
18317;DHT22;9284;52.298;21.164;2023-07-16T12:35:56;35.30;1.00
18317;DHT22;9284;52.298;21.164;2023-07-16T12:38:26;35.40;1.00
18317;DHT22;9284;52.298;21.164;2023-07-16T12:40:55;35.00;1.00
18317;DHT22;9284;52.298;21.164;2023-07-16T12:43:24;34.80;1.00
18317;DHT22;9284;52.298;21.164;2023-07-16T12:45:53;34.70;1.00
18317;DHT22;9284;52.298;21.164;2023-07-16T12:48:21;34.80;1.00
18317;DHT22;9284;52.298;21.164;2023-07-16T12:50:52;34.80;1.00
18317;DHT22;9284;52.298;21.164;2023-07-16T12:53:21;35.00;1.00
18317;DHT22;9284;52.298;21.164;2023-07-16T12:55:49;35.00;1.00
18317;DHT22;9284;52.298;21.164;2023-07-16T12:58:18;34.80;1.00
18317;DHT22;9284;52.298;21.164;2023-07-16T13:00:48;34.80;1.00
18317;DHT22;9284;52.298;21.164;2023-07-16T13:03:16;34.80;1.00
18317;DHT22;9284;52.298;21.164;2023-07-16T13:05:45;34.70;1.00
18317;DHT22;9284;52.298;21.164;2023-07-16T13:08:14;34.80;1.00
18317;DHT22;9284;52.298;21.164;2023-07-16T13:10:42;34.60;1.00
18317;DHT22;9284;52.298;21.164;2023-07-16T13:13:11;34.70;1.00
18317;DHT22;9284;52.298;21.164;2023-07-16T13:15:39;34.60;1.00
18317;DHT22;9284;52.298;21.164;2023-07-16T13:18:10;34.50;1.00
18317;DHT22;9284;52.298;21.164;2023-07-16T13:20:39;34.50;1.00
18317;DHT22;9284;52.298;21.164;2023-07-16T13:23:08;34.50;1.00
18317;DHT22;9284;52.298;21.164;2023-07-16T13:25:36;34.40;1.00
18317;DHT22;9284;52.298;21.164;2023-07-16T13:28:05;34.30;1.00
18317;DHT22;9284;52.298;21.164;2023-07-16T13:30:34;34.10;1.00
18317;DHT22;9284;52.298;21.164;2023-07-16T13:33:02;33.90;1.00
18317;DHT22;9284;52.298;21.164;2023-07-16T13:35:32;33.60;1.00
18317;DHT22;9284;52.298;21.164;2023-07-16T13:38:00;33.60;1.00
18317;DHT22;9284;52.298;21.164;2023-07-16T13:40:29;33.70;1.00
18317;DHT22;9284;52.298;21.164;2023-07-16T13:42:57;33.80;1.00
18317;DHT22;9284;52.298;21.164;2023-07-16T13:45:26;34.00;1.00
18317;DHT22;9284;52.298;21.164;2023-07-16T13:47:55;33.90;1.00
18317;DHT22;9284;52.298;21.164;2023-07-16T13:50:23;33.70;1.00
18317;DHT22;9284;52.298;21.164;2023-07-16T13:52:53;33.50;1.00
18317;DHT22;9284;52.298;21.164;2023-07-16T13:55:21;33.40;1.00
18317;DHT22;9284;52.298;21.164;2023-07-16T13:57:50;33.20;1.00
18317;DHT22;9284;52.298;21.164;2023-07-16T14:00:18;33.30;1.00
18317;DHT22;9284;52.298;21.164;2023-07-16T14:02:47;33.20;1.00
18317;DHT22;9284;52.298;21.164;2023-07-16T14:05:15;33.30;1.00
18317;DHT22;9284;52.298;21.164;2023-07-16T14:07:44;33.40;1.00
18317;DHT22;9284;52.298;21.164;2023-07-16T14:10:13;33.50;1.00
18317;DHT22;9284;52.298;21.164;2023-07-16T14:12:42;33.60;1.00
18317;DHT22;9284;52.298;21.164;2023-07-16T14:15:10;33.70;1.00
18317;DHT22;9284;52.298;21.164;2023-07-16T14:17:38;33.70;1.00
18317;DHT22;9284;52.298;21.164;2023-07-16T14:20:08;33.90;1.00
18317;DHT22;9284;52.298;21.164;2023-07-16T14:22:37;33.80;1.00
18317;DHT22;9284;52.298;21.164;2023-07-16T14:25:06;33.80;1.00
18317;DHT22;9284;52.298;21.164;2023-07-16T14:27:37;34.00;1.00
18317;DHT22;9284;52.298;21.164;2023-07-16T14:30:07;34.00;1.00
18317;DHT22;9284;52.298;21.164;2023-07-16T14:32:35;34.00;1.00
18317;DHT22;9284;52.298;21.164;2023-07-16T14:35:04;33.80;1.00
18317;DHT22;9284;52.298;21.164;2023-07-16T14:37:47;33.50;1.00
18317;DHT22;9284;52.298;21.164;2023-07-16T14:40:16;33.30;1.00
18317;DHT22;9284;52.298;21.164;2023-07-16T14:42:46;33.20;1.00
18317;DHT22;9284;52.298;21.164;2023-07-16T14:45:15;33.00;1.00
18317;DHT22;9284;52.298;21.164;2023-07-16T14:47:44;32.90;1.00
18317;DHT22;9284;52.298;21.164;2023-07-16T14:50:13;33.00;1.00
18317;DHT22;9284;52.298;21.164;2023-07-16T14:52:41;32.90;1.00
18317;DHT22;9284;52.298;21.164;2023-07-16T14:55:10;33.00;1.00
18317;DHT22;9284;52.298;21.164;2023-07-16T14:57:39;33.00;1.00
18317;DHT22;9284;52.298;21.164;2023-07-16T15:00:10;33.00;1.00
18317;DHT22;9284;52.298;21.164;2023-07-16T15:02:41;32.80;1.00
18317;DHT22;9284;52.298;21.164;2023-07-16T15:05:09;32.60;1.00
18317;DHT22;9284;52.298;21.164;2023-07-16T15:07:38;32.50;1.00
18317;DHT22;9284;52.298;21.164;2023-07-16T15:10:07;32.20;1.00
18317;DHT22;9284;52.298;21.164;2023-07-16T15:12:35;32.10;1.00
18317;DHT22;9284;52.298;21.164;2023-07-16T15:15:04;31.90;1.00
18317;DHT22;9284;52.298;21.164;2023-07-16T15:17:34;31.90;1.00
18317;DHT22;9284;52.298;21.164;2023-07-16T15:20:03;31.80;1.00
18317;DHT22;9284;52.298;21.164;2023-07-16T15:22:32;31.50;1.00
18317;DHT22;9284;52.298;21.164;2023-07-16T15:25:00;31.50;1.00
18317;DHT22;9284;52.298;21.164;2023-07-16T15:27:29;31.50;1.00
18317;DHT22;9284;52.298;21.164;2023-07-16T15:29:58;31.40;1.00
18317;DHT22;9284;52.298;21.164;2023-07-16T15:32:26;31.40;1.00
18317;DHT22;9284;52.298;21.164;2023-07-16T15:34:56;31.30;1.00
18317;DHT22;9284;52.298;21.164;2023-07-16T15:37:24;31.20;1.00
18317;DHT22;9284;52.298;21.164;2023-07-16T15:39:53;31.20;1.00
18317;DHT22;9284;52.298;21.164;2023-07-16T15:42:22;31.10;1.00
18317;DHT22;9284;52.298;21.164;2023-07-16T15:44:50;31.10;1.00
18317;DHT22;9284;52.298;21.164;2023-07-16T15:47:19;31.00;1.00
18317;DHT22;9284;52.298;21.164;2023-07-16T15:49:48;31.00;1.00
18317;DHT22;9284;52.298;21.164;2023-07-16T15:52:18;30.90;1.00
18317;DHT22;9284;52.298;21.164;2023-07-16T15:54:46;30.90;1.00
18317;DHT22;9284;52.298;21.164;2023-07-16T15:57:15;31.00;1.00
18317;DHT22;9284;52.298;21.164;2023-07-16T15:59:43;30.90;1.00